sim
Sign-in with your pilot id or email,
or register
Callsign
Passwort

Schedule Details

Flight Number: DLH2082
Departure: Munich Airport (EDDM) at 19:15
Arrival: Hamburg Airport (EDDH) at 20:35
Route: Lufthansa Passenger Schedule. Enter filed route here before submitting Pirep.

Weather Information
Getting current METAR information for EDDM 241420Z 25021KT 9999 -SN FEW020 BKN040 01/M05 Q1000 NOSIG
Getting current METAR information for EDDH 241420Z 19003KT 9999 -RA FEW011 BKN014 03/02 Q0997 TEMPO 4500 -RASN

Schedule Frequency

Route Map